Terminal Aerodrome Forecast
Issued by NWS

Home | Current Version | Previous Version | Text Only | Print | Product List | Glossary On
Versions: 1 2 3 4 5 6 7 8 9 10 11 12 13 14 15 16 17 18 19 20 21 22 23 24
000
FTUS44 KTSA 170404 AAA
TAFXNA
TAF AMD
KXNA 170404Z 1704/1724 26005KT P6SM VCTS BKN050CB OVC100
      TEMPO 1704/1707 VRB20KT 3SM TSRA BKN035CB
     FM170800 22007KT P6SM SCT040 BKN150
     FM171500 29008KT P6SM FEW015 SCT025 BKN035=

USA.gov is the U.S. government's official web portal to all federal, state and local government web resources and services.